createdAt,value
2022-11-12T00:02:59.459Z,101888.13
2022-11-12T00:05:49.531Z,101894.91
2022-11-12T00:08:38.171Z,101899.91
2022-11-12T00:11:25.617Z,101894.78
2022-11-12T00:14:12.986Z,101892.50
2022-11-12T00:17:01.370Z,101893.00
2022-11-12T00:19:49.188Z,101899.22
2022-11-12T00:22:36.667Z,101896.88
2022-11-12T00:25:24.522Z,101898.09
2022-11-12T00:28:12.807Z,101906.13
2022-11-12T00:31:00.277Z,101907.47
2022-11-12T00:33:48.956Z,101905.03
2022-11-12T00:36:36.775Z,101907.66
2022-11-12T00:39:23.989Z,101908.19
2022-11-12T00:42:11.566Z,101909.66
2022-11-12T00:44:58.330Z,101904.91
2022-11-12T00:47:45.787Z,101901.53
2022-11-12T00:50:34.051Z,101910.38
2022-11-12T00:53:21.634Z,101900.69
2022-11-12T00:56:10.769Z,101895.59
2022-11-12T00:59:00.035Z,101898.63
2022-11-12T01:01:47.168Z,101885.16
2022-11-12T01:04:35.331Z,101893.84
2022-11-12T01:07:23.997Z,101892.81
2022-11-12T01:10:12.912Z,101887.22
2022-11-12T01:13:00.195Z,101883.53
2022-11-12T01:15:47.635Z,101880.38
2022-11-12T01:18:35.147Z,101884.03
2022-11-12T01:21:23.891Z,101880.50
2022-11-12T01:24:12.894Z,101872.66
2022-11-12T01:27:00.632Z,101877.16
2022-11-12T01:29:47.915Z,101875.63
2022-11-12T01:32:38.443Z,101882.25
2022-11-12T01:35:25.447Z,101866.88
2022-11-12T01:38:12.997Z,101879.53
2022-11-12T01:41:01.831Z,101880.06
2022-11-12T01:43:49.577Z,101887.84
2022-11-12T01:46:48.237Z,101881.63
2022-11-12T01:49:53.152Z,101892.47
2022-11-12T01:52:49.669Z,101899.38
2022-11-12T01:55:39.263Z,101892.72
2022-11-12T01:58:33.472Z,101898.66
2022-11-12T02:01:20.879Z,101892.97
2022-11-12T02:04:08.543Z,101899.28
2022-11-12T02:06:59.645Z,101898.59
2022-11-12T02:09:47.083Z,101898.41
2022-11-12T02:12:52.620Z,101895.72
2022-11-12T02:15:42.855Z,101866.50
2022-11-12T02:18:30.618Z,101890.03
2022-11-12T02:21:21.774Z,101893.22
2022-11-12T02:24:36.952Z,101894.25
2022-11-12T02:27:25.375Z,101886.63
2022-11-12T02:30:13.778Z,101884.50
2022-11-12T02:33:01.665Z,101879.47
2022-11-12T02:35:49.082Z,101899.97
2022-11-12T02:38:37.472Z,101893.84
2022-11-12T02:41:25.686Z,101893.69
2022-11-12T02:44:12.650Z,101888.44
2022-11-12T02:47:00.112Z,101897.63
2022-11-12T02:49:47.292Z,101905.72
2022-11-12T02:52:34.953Z,101895.06
2022-11-12T02:55:23.528Z,101901.59
2022-11-12T02:58:11.293Z,101899.56
2022-11-12T03:00:59.255Z,101911.13
2022-11-12T03:03:46.598Z,101900.09
2022-11-12T03:06:33.790Z,101906.38
2022-11-12T03:09:21.288Z,101911.06
2022-11-12T03:12:09.883Z,101910.41
2022-11-12T03:14:57.198Z,101918.09
2022-11-12T03:17:44.062Z,101906.16
2022-11-12T03:20:31.498Z,101917.91
2022-11-12T03:23:18.929Z,101918.31
2022-11-12T03:26:06.881Z,101922.97
2022-11-12T03:28:55.231Z,101923.50
2022-11-12T03:31:43.416Z,101911.22
2022-11-12T03:34:30.532Z,101922.88
2022-11-12T03:37:18.282Z,101924.41
2022-11-12T03:40:06.886Z,101927.34
2022-11-12T03:42:55.656Z,101912.72
2022-11-12T03:45:44.209Z,101923.22
2022-11-12T03:48:31.608Z,101922.25
2022-11-12T03:51:19.118Z,101921.78
2022-11-12T03:54:06.951Z,101917.81
2022-11-12T03:56:54.217Z,101916.31
2022-11-12T03:59:41.614Z,101922.81
2022-11-12T04:02:30.196Z,101908.94
2022-11-12T04:05:35.514Z,101915.16
2022-11-12T04:08:37.393Z,101907.53
2022-11-12T04:11:26.112Z,101911.66
2022-11-12T04:14:12.546Z,101908.03
2022-11-12T04:17:16.968Z,101912.06
2022-11-12T04:20:23.646Z,101909.59
2022-11-12T04:23:11.375Z,101911.03
2022-11-12T04:26:21.490Z,101917.84
2022-11-12T04:29:26.841Z,101904.47
2022-11-12T04:32:14.483Z,101910.97
2022-11-12T04:35:02.257Z,101910.84
2022-11-12T04:37:51.279Z,101904.88
2022-11-12T04:40:55.995Z,101910.63
2022-11-12T04:44:00.692Z,101901.09
2022-11-12T04:46:48.157Z,101907.66
2022-11-12T04:49:35.129Z,101907.22
2022-11-12T04:52:22.624Z,101900.34
2022-11-12T04:55:12.157Z,101911.31
2022-11-12T04:58:01.033Z,101912.44
2022-11-12T05:00:48.774Z,101912.09
2022-11-12T05:03:36.264Z,101902.56
2022-11-12T05:06:40.820Z,101909.38
2022-11-12T05:09:30.179Z,101911.56
2022-11-12T05:12:18.428Z,101918.69
2022-11-12T05:15:07.694Z,101904.81
2022-11-12T05:17:54.637Z,101920.19
2022-11-12T05:20:41.967Z,101906.84
2022-11-12T05:23:28.932Z,101924.13
2022-11-12T05:26:16.389Z,101915.47
2022-11-12T05:29:08.763Z,101909.75
2022-11-12T05:31:56.948Z,101911.06
2022-11-12T05:34:44.190Z,101914.09
2022-11-12T05:37:31.232Z,101926.16
2022-11-12T05:45:11.097Z,101936.91
2022-11-12T05:47:58.323Z,101932.06
2022-11-12T05:51:11.197Z,101928.78
2022-11-12T05:53:52.975Z,101939.38
2022-11-12T05:56:41.065Z,101939.97
2022-11-12T05:59:27.951Z,101947.31
2022-11-12T06:02:16.764Z,101954.75
2022-11-12T06:05:04.432Z,101948.69
2022-11-12T06:07:51.575Z,101952.94
2022-11-12T06:10:38.686Z,101959.50
2022-11-12T06:13:27.344Z,101956.34
2022-11-12T06:16:14.476Z,101959.69
2022-11-12T06:19:03.281Z,101956.38
2022-11-12T06:21:50.140Z,101948.09
2022-11-12T06:24:38.098Z,101962.66
2022-11-12T06:27:25.304Z,101960.00
2022-11-12T06:30:13.804Z,101968.16
2022-11-12T06:33:00.778Z,101969.38
2022-11-12T06:35:57.019Z,101970.22
2022-11-12T06:38:45.398Z,101966.72
2022-11-12T06:41:33.046Z,101966.09
2022-11-12T06:44:22.408Z,101968.75
2022-11-12T06:47:10.668Z,101966.66
2022-11-12T06:54:51.241Z,101972.41
2022-11-12T06:57:38.810Z,101975.56
2022-11-12T07:00:26.160Z,101974.88
2022-11-12T07:03:17.160Z,101983.38
2022-11-12T07:06:10.813Z,101981.44
2022-11-12T07:08:58.056Z,101986.78
2022-11-12T07:11:46.793Z,101992.63
2022-11-12T07:14:33.749Z,101992.53
2022-11-12T07:17:21.004Z,102001.25
2022-11-12T07:20:10.596Z,101996.88
2022-11-12T07:23:02.421Z,101998.94
2022-11-12T07:25:58.334Z,102000.84
2022-11-12T07:28:48.381Z,101992.94
2022-11-12T07:31:35.632Z,101996.00
2022-11-12T07:34:23.111Z,102005.19
2022-11-12T07:37:10.247Z,102002.47
2022-11-12T07:39:57.812Z,102005.03
2022-11-12T07:42:45.080Z,102004.66
2022-11-12T07:45:33.846Z,101997.03
2022-11-12T07:48:21.270Z,101982.97
2022-11-12T07:51:14.038Z,101999.78
2022-11-12T07:54:01.842Z,102007.78
2022-11-12T07:56:49.630Z,102005.66
2022-11-12T07:59:39.543Z,102002.88
2022-11-12T08:02:32.599Z,102002.47
2022-11-12T08:05:21.524Z,102003.13
2022-11-12T08:08:09.041Z,101997.22
2022-11-12T08:10:57.659Z,101998.88
2022-11-12T08:13:45.157Z,101999.84
2022-11-12T08:16:33.270Z,102007.84
2022-11-12T08:24:12.772Z,101998.78
2022-11-12T08:26:59.772Z,101998.78
2022-11-12T08:29:47.189Z,102004.66
2022-11-12T08:32:34.185Z,102009.28
2022-11-12T08:35:21.593Z,102005.91
2022-11-12T08:38:10.779Z,102001.34
2022-11-12T08:41:02.965Z,101999.38
2022-11-12T08:43:50.066Z,102010.91
2022-11-12T08:46:37.674Z,102018.13
2022-11-12T08:49:24.941Z,102023.25
2022-11-12T08:52:12.511Z,102021.16
2022-11-12T08:54:59.922Z,102018.50
2022-11-12T08:57:48.823Z,102024.47
2022-11-12T09:00:40.376Z,102030.47
2022-11-12T09:03:27.815Z,102026.28
2022-11-12T09:11:06.743Z,102034.72
2022-11-12T09:13:56.056Z,102034.25
2022-11-12T09:16:43.485Z,102034.00
2022-11-12T09:19:30.321Z,102040.91
2022-11-12T09:22:17.894Z,102045.88
2022-11-12T09:25:05.927Z,102040.50
2022-11-12T09:27:53.777Z,102038.00
2022-11-12T09:30:46.673Z,102036.38
2022-11-12T09:33:35.468Z,102038.44
2022-11-12T09:36:22.756Z,102035.53
2022-11-12T09:39:10.508Z,102036.09
2022-11-12T09:42:01.933Z,102038.03
2022-11-12T09:45:00.666Z,102044.72
2022-11-12T09:47:58.436Z,102048.56
2022-11-12T09:50:59.568Z,102056.22
2022-11-12T09:53:55.951Z,102050.22
2022-11-12T09:56:43.170Z,102041.56
2022-11-12T09:59:33.814Z,102042.47
2022-11-12T10:02:33.101Z,102049.66
2022-11-12T10:07:00.579Z,102051.50
2022-11-12T10:10:04.279Z,102048.34
2022-11-12T10:13:14.229Z,102049.34
2022-11-12T10:16:45.500Z,102044.13
2022-11-12T10:20:05.534Z,102048.75
2022-11-12T10:23:15.337Z,102052.22
2022-11-12T10:26:14.857Z,102049.00
2022-11-12T10:29:15.307Z,102054.00
2022-11-12T10:32:03.630Z,102060.38
2022-11-12T10:34:51.441Z,102060.19
2022-11-12T10:37:47.441Z,102067.00
2022-11-12T10:45:29.964Z,102054.63
2022-11-12T10:48:27.802Z,102060.03
2022-11-12T10:51:30.704Z,102059.41
2022-11-12T10:54:30.309Z,102045.63
2022-11-12T10:57:24.812Z,102056.63
2022-11-12T11:01:51.697Z,102057.72
2022-11-12T11:04:40.508Z,102061.38
2022-11-12T11:07:28.253Z,102064.63
2022-11-12T11:10:27.763Z,102062.38
2022-11-12T11:13:23.919Z,102067.94
2022-11-12T11:16:16.365Z,102056.72
2022-11-12T11:19:07.370Z,102063.19
2022-11-12T11:22:16.396Z,102058.47
2022-11-12T11:25:22.412Z,102059.09
2022-11-12T11:28:23.326Z,102058.94
2022-11-12T11:31:27.452Z,102062.69
2022-11-12T11:34:29.933Z,102070.78
2022-11-12T11:37:28.467Z,102064.88
2022-11-12T11:40:28.155Z,102062.75
2022-11-12T11:43:48.690Z,102053.09
2022-11-12T11:46:59.657Z,102055.78
2022-11-12T12:04:46.873Z,102067.03
2022-11-12T12:07:47.859Z,102054.94
2022-11-12T12:11:07.460Z,102057.81
2022-11-12T12:14:17.311Z,102058.97
2022-11-12T12:17:27.824Z,102049.66
2022-11-12T12:20:30.325Z,102055.97
2022-11-12T12:23:30.735Z,102052.78
2022-11-12T12:26:25.188Z,102051.56
2022-11-12T12:30:51.756Z,102056.03
2022-11-12T12:33:48.200Z,102049.72
2022-11-12T12:36:42.141Z,102046.06
2022-11-12T12:39:47.746Z,102049.06
2022-11-12T12:42:46.287Z,102057.84
2022-11-12T12:45:43.386Z,102047.84
2022-11-12T12:50:09.838Z,102053.47
2022-11-12T12:53:16.666Z,102048.59
2022-11-12T12:56:06.871Z,102029.59
2022-11-12T12:58:55.256Z,102047.28
2022-11-12T13:01:42.399Z,102056.69
2022-11-12T13:04:54.105Z,102056.50
2022-11-12T13:07:45.220Z,102054.28
2022-11-12T13:10:54.866Z,102050.13
2022-11-12T13:13:42.044Z,102048.56
2022-11-12T13:16:59.364Z,102056.91
2022-11-12T13:20:31.784Z,102049.28
2022-11-12T13:24:00.629Z,102049.13
2022-11-12T13:26:53.912Z,102035.44
2022-11-12T13:29:44.767Z,102048.91
2022-11-12T13:32:41.922Z,102042.94
2022-11-12T13:35:34.219Z,102049.72
2022-11-12T13:38:21.679Z,102055.50
2022-11-12T13:41:19.470Z,102054.19
2022-11-12T13:44:17.895Z,102057.13
2022-11-12T13:47:06.130Z,102059.25
2022-11-12T13:49:53.471Z,102056.84
2022-11-12T13:52:41.910Z,102052.22
2022-11-12T13:55:29.096Z,102054.81
2022-11-12T13:58:26.990Z,102052.22
2022-11-12T14:02:53.736Z,102055.19
2022-11-12T14:05:50.581Z,102054.72
2022-11-12T14:09:04.561Z,102040.44
2022-11-12T14:12:20.555Z,102050.41
2022-11-12T14:15:32.863Z,102046.78
2022-11-12T14:18:30.334Z,102051.16
2022-11-12T14:21:20.326Z,102054.06
2022-11-12T14:24:13.784Z,102053.13
2022-11-12T14:27:00.873Z,102051.44
2022-11-12T14:29:48.516Z,102040.75
2022-11-12T14:32:40.973Z,102045.59
2022-11-12T14:35:35.796Z,102044.72
2022-11-12T14:38:30.349Z,102045.75
2022-11-12T14:41:23.936Z,102048.78
2022-11-12T14:44:20.256Z,102052.13
2022-11-12T14:47:10.547Z,102036.50
2022-11-12T14:49:58.882Z,102052.25
2022-11-12T14:52:52.288Z,102048.81
2022-11-12T15:00:44.159Z,102052.84
2022-11-12T15:03:34.236Z,102043.44
2022-11-12T15:06:30.951Z,102047.53
2022-11-12T15:09:21.972Z,102057.50
2022-11-12T15:13:50.982Z,102057.91
2022-11-12T15:16:44.924Z,102063.88
2022-11-12T15:19:33.416Z,102058.75
2022-11-12T15:27:36.174Z,102057.28
2022-11-12T15:30:28.242Z,102065.00
2022-11-12T15:33:24.229Z,102069.22
2022-11-12T15:36:20.192Z,102066.50
2022-11-12T15:39:15.386Z,102076.59
2022-11-12T15:42:07.667Z,102080.63
2022-11-12T15:45:00.881Z,102081.66
2022-11-12T15:47:48.836Z,102077.81
2022-11-12T15:50:39.121Z,102068.88
2022-11-12T15:53:26.501Z,102080.06
2022-11-12T15:56:21.660Z,102082.31
2022-11-12T15:59:15.164Z,102077.72
2022-11-12T16:02:02.743Z,102088.09
2022-11-12T16:04:49.791Z,102077.75
2022-11-12T16:07:38.628Z,102088.53
2022-11-12T16:10:26.588Z,102089.84
2022-11-12T16:13:27.234Z,102083.41
2022-11-12T16:17:53.982Z,102101.78
2022-11-12T16:20:41.435Z,102102.66
2022-11-12T16:23:30.023Z,102108.56
2022-11-12T16:26:25.995Z,102107.06
2022-11-12T16:29:14.898Z,102104.53
2022-11-12T16:32:02.818Z,102114.75
2022-11-12T16:34:49.896Z,102104.31
2022-11-12T16:37:39.421Z,102110.63
2022-11-12T16:40:31.138Z,102098.63
2022-11-12T16:43:18.837Z,102115.66
2022-11-12T16:51:01.397Z,102106.88
2022-11-12T16:53:49.170Z,102119.88
2022-11-12T16:56:38.748Z,102096.78
2022-11-12T16:59:25.546Z,102100.72
2022-11-12T17:02:16.540Z,102110.38
2022-11-12T17:05:05.242Z,102110.78
2022-11-12T17:07:58.716Z,102111.28
2022-11-12T17:10:45.892Z,102116.66
2022-11-12T17:13:34.954Z,102107.53
2022-11-12T17:16:22.226Z,102111.59
2022-11-12T17:19:11.997Z,102110.66
2022-11-12T17:23:42.175Z,102111.59
2022-11-12T17:26:30.180Z,102110.25
2022-11-12T17:29:18.601Z,102108.19
2022-11-12T17:33:49.173Z,102110.16
2022-11-12T17:36:39.294Z,102102.13
2022-11-12T17:39:29.446Z,102098.34
2022-11-12T17:42:16.935Z,102107.72
2022-11-12T17:45:06.875Z,102111.25
2022-11-12T17:47:54.380Z,102109.59
2022-11-12T17:50:41.797Z,102097.47
2022-11-12T17:53:30.824Z,102109.66
2022-11-12T17:56:23.676Z,102118.47
2022-11-12T17:59:11.043Z,102113.22
2022-11-12T18:02:00.034Z,102101.94
2022-11-12T18:04:47.424Z,102109.75
2022-11-12T18:07:34.916Z,102109.19
2022-11-12T18:10:21.943Z,102106.66
2022-11-12T18:13:09.333Z,102104.34
2022-11-12T18:15:56.282Z,102088.00
2022-11-12T18:18:45.853Z,102093.41
2022-11-12T18:21:33.208Z,102098.56
2022-11-12T18:24:20.811Z,102096.03
2022-11-12T18:27:07.883Z,102097.47
2022-11-12T18:29:55.161Z,102089.00
2022-11-12T18:37:35.557Z,102106.22
2022-11-12T18:40:23.235Z,102087.81
2022-11-12T18:43:10.468Z,102110.50
2022-11-12T18:46:00.448Z,102101.09
2022-11-12T18:48:48.447Z,102096.06
2022-11-12T18:51:36.270Z,102111.88
2022-11-12T18:59:16.433Z,102110.22
2022-11-12T19:02:03.851Z,102103.09
2022-11-12T19:04:50.689Z,102097.16
2022-11-12T19:07:38.296Z,102103.28
2022-11-12T19:10:26.093Z,102091.25
2022-11-12T19:13:13.625Z,102101.78
2022-11-12T19:16:08.075Z,102113.97
2022-11-12T19:18:55.883Z,102119.31
2022-11-12T19:21:43.236Z,102114.97
2022-11-12T19:24:31.319Z,102112.56
2022-11-12T19:27:18.158Z,102121.00
2022-11-12T19:30:07.143Z,102122.84
2022-11-12T19:32:56.158Z,102123.06
2022-11-12T19:35:43.985Z,102120.53
2022-11-12T19:38:31.979Z,102117.81
2022-11-12T19:41:20.242Z,102126.03
2022-11-12T19:44:07.977Z,102110.78
2022-11-12T19:51:45.663Z,102118.50
2022-11-12T19:54:33.194Z,102103.75
2022-11-12T19:57:20.288Z,102121.13
2022-11-12T20:00:10.859Z,102123.53
2022-11-12T20:02:59.050Z,102122.28
2022-11-12T20:05:46.705Z,102121.63
2022-11-12T20:08:36.253Z,102132.56
2022-11-12T20:11:24.032Z,102113.06
2022-11-12T20:14:11.214Z,102112.94
2022-11-12T20:16:58.674Z,102124.00
2022-11-12T20:19:45.659Z,102129.06
2022-11-12T20:22:34.132Z,102127.91
2022-11-12T20:25:22.963Z,102136.97
2022-11-12T20:28:11.254Z,102125.91
2022-11-12T20:31:03.694Z,102133.91
2022-11-12T20:33:52.564Z,102124.53
2022-11-12T20:36:39.652Z,102134.22
2022-11-12T20:39:27.102Z,102139.31
2022-11-12T20:42:15.883Z,102135.66
2022-11-12T20:45:03.367Z,102129.94
2022-11-12T20:47:50.303Z,102139.88
2022-11-12T20:50:37.762Z,102148.47
2022-11-12T20:53:25.098Z,102135.56
2022-11-12T20:56:15.958Z,102143.63
2022-11-12T20:59:04.786Z,102144.28
2022-11-12T21:06:42.510Z,102126.94
2022-11-12T21:09:30.013Z,102137.47
2022-11-12T21:12:17.613Z,102136.66
2022-11-12T21:15:07.579Z,102133.22
2022-11-12T21:17:54.310Z,102134.97
2022-11-12T21:20:41.865Z,102139.75
2022-11-12T21:23:31.075Z,102132.13
2022-11-12T21:26:20.776Z,102136.63
2022-11-12T21:29:07.835Z,102137.69
2022-11-12T21:31:56.499Z,102140.38
2022-11-12T21:34:43.403Z,102131.91
2022-11-12T21:37:30.855Z,102124.78
2022-11-12T21:40:18.485Z,102119.81
2022-11-12T21:43:07.180Z,102132.63
2022-11-12T21:45:54.124Z,102134.13
2022-11-12T21:48:43.318Z,102141.19
2022-11-12T21:51:32.850Z,102138.47
2022-11-12T21:54:20.049Z,102149.06
2022-11-12T21:57:07.065Z,102138.38
2022-11-12T22:00:00.201Z,102136.88
2022-11-12T22:02:56.494Z,102135.06
2022-11-12T22:05:45.112Z,102134.03
2022-11-12T22:08:32.142Z,102140.13
2022-11-12T22:11:20.295Z,102146.94
2022-11-12T22:14:07.507Z,102137.22
2022-11-12T22:16:55.003Z,102136.84
2022-11-12T22:19:42.282Z,102132.53
2022-11-12T22:22:30.996Z,102143.31
2022-11-12T22:25:18.091Z,102133.84
2022-11-12T22:28:06.023Z,102143.31
2022-11-12T22:30:54.284Z,102143.78
2022-11-12T22:33:41.962Z,102131.88
2022-11-12T22:36:32.930Z,102127.28
2022-11-12T22:39:21.938Z,102130.13
2022-11-12T22:42:08.779Z,102129.59
2022-11-12T22:44:56.255Z,102128.78
2022-11-12T22:47:43.258Z,102145.47
2022-11-12T22:50:30.872Z,102135.66
2022-11-12T22:53:18.289Z,102118.91
2022-11-12T22:56:10.271Z,102134.69
2022-11-12T22:58:58.945Z,102138.97
2022-11-12T23:01:47.024Z,102142.81
2022-11-12T23:04:34.860Z,102126.03
2022-11-12T23:07:22.230Z,102129.44
2022-11-12T23:10:10.860Z,102139.47
2022-11-12T23:12:59.326Z,102143.13
2022-11-12T23:15:47.299Z,102139.16
2022-11-12T23:18:34.362Z,102132.41
2022-11-12T23:21:25.102Z,102130.53
2022-11-12T23:24:12.673Z,102139.66
2022-11-12T23:27:01.248Z,102129.09
2022-11-12T23:29:49.835Z,102130.81
2022-11-12T23:32:36.698Z,102131.78
2022-11-12T23:35:24.026Z,102128.78
2022-11-12T23:38:10.980Z,102118.78
2022-11-12T23:40:58.658Z,102125.69
2022-11-12T23:43:45.905Z,102125.91
2022-11-12T23:46:34.514Z,102121.72
2022-11-12T23:49:21.397Z,102116.25
2022-11-12T23:52:08.836Z,102126.56
2022-11-12T23:54:55.749Z,102126.19
